OOSH

Sohar Airport

Sohar, Oman
TAF OOSH 171700Z 1718/1824 VRB02KT 8000 NSC BECMG 1805/1807 07012KT PROB30 TEMPO 1805/1810 BKN030 BECMG 1815/1817 VRB02KT
Issued Valid From Valid To
Nov-17 @ 17:00 UTC
(5 hours ago)
Nov-17 @ 18:00 UTC
(4 hours ago)
Nov-19 @ 00:00 UTC
(-1 days ago)
Nov-17 @ 18:00 to Nov-18 @ 05:00
TAF OOSH 171700Z 1718/1824 VRB02KT 8000 NSC
Wind Visibility Clouds
Variable at 2 knots 7,998 meters
  • No significant clouds
Temporary  (Probability 30%) Nov-18 @ 05:00 to Nov-18 @ 10:00
PROB30 TEMPO 1805/1810 BKN030
Clouds
  • Broken at 3,000' AGL
Becoming Nov-18 @ 05:00 to Nov-18 @ 15:00
BECMG 1805/1807 07012KT
Wind Visibility Clouds
70° at 12 knots 7,998 meters
  • No significant clouds
Becoming Nov-18 @ 15:00 to Nov-19 @ 00:00
BECMG 1815/1817 VRB02KT
Wind Visibility Clouds
Variable at 2 knots 7,998 meters
  • No significant clouds
TAF OOSH 171700Z 1718/1824 VRB02KT 8000 NSC BECMG 1805/1807 07012KT PROB30 TEMPO 1805/1810 BKN030 BECMG 1815/1817 VRB02KT
Issued Nov-17 @ 17:00 UTC
(5 hours ago)
Valid From Nov-17 @ 18:00 UTC
(4 hours ago)
Valid To Nov-19 @ 00:00 UTC
(-1 days ago)
Nov-17 @ 18:00 - Nov-18 @ 05:00
Wind Visibility
Variable at 2 knots 7,998 meters
Clouds
  • No significant clouds
Probability 30% Temporary Nov-18 @ 05:00 - Nov-18 @ 10:00
Clouds
  • Broken at 3,000' AGL
Becoming Nov-18 @ 05:00 - Nov-18 @ 15:00
Wind Visibility
70° at 12 knots 7,998 meters
Clouds
  • No significant clouds
Becoming Nov-18 @ 15:00 - Nov-19 @ 00:00
Wind Visibility
Variable at 2 knots 7,998 meters
Clouds
  • No significant clouds